createdAt,value
2023-01-20T00:01:40.807Z,100691.03
2023-01-20T00:04:09.307Z,100697.78
2023-01-20T00:06:39.415Z,100700.81
2023-01-20T00:09:09.392Z,100704.97
2023-01-20T00:11:37.916Z,100693.59
2023-01-20T00:14:06.527Z,100698.47
2023-01-20T00:16:35.503Z,100706.75
2023-01-20T00:19:04.212Z,100707.53
2023-01-20T00:21:32.772Z,100709.59
2023-01-20T00:24:02.664Z,100707.41
2023-01-20T00:26:31.179Z,100710.53
2023-01-20T00:28:59.805Z,100711.22
2023-01-20T00:31:30.675Z,100721.03
2023-01-20T00:34:01.159Z,100720.22
2023-01-20T00:36:32.191Z,100724.16
2023-01-20T00:39:03.805Z,100718.84
2023-01-20T00:41:32.819Z,100727.97
2023-01-20T00:44:01.337Z,100728.19
2023-01-20T00:46:29.899Z,100722.63
2023-01-20T00:48:58.468Z,100727.06
2023-01-20T00:51:26.950Z,100730.03
2023-01-20T00:53:55.439Z,100728.88
2023-01-20T00:56:25.304Z,100733.66
2023-01-20T00:58:55.433Z,100732.16
2023-01-20T01:01:24.400Z,100734.03
2023-01-20T01:03:55.197Z,100738.56
2023-01-20T01:06:23.894Z,100733.66
2023-01-20T01:08:53.092Z,100745.19
2023-01-20T01:11:21.611Z,100744.34
2023-01-20T01:13:51.470Z,100739.56
2023-01-20T01:16:19.985Z,100747.97
2023-01-20T01:18:48.529Z,100755.69
2023-01-20T01:21:18.242Z,100754.69
2023-01-20T01:23:46.887Z,100754.31
2023-01-20T01:26:15.543Z,100746.75
2023-01-20T01:28:44.097Z,100754.63
2023-01-20T01:31:13.990Z,100760.75
2023-01-20T01:33:42.796Z,100759.41
2023-01-20T01:36:14.920Z,100759.59
2023-01-20T01:38:43.528Z,100766.31
2023-01-20T01:41:13.381Z,100764.31
2023-01-20T01:44:00.880Z,100770.59
2023-01-20T01:46:30.740Z,100771.53
2023-01-20T01:49:01.906Z,100775.06
2023-01-20T01:51:34.911Z,100779.47
2023-01-20T01:54:10.028Z,100773.84
2023-01-20T01:56:41.631Z,100774.78
2023-01-20T01:59:10.980Z,100787.19
2023-01-20T02:01:44.458Z,100789.03
2023-01-20T02:04:15.134Z,100795.56
2023-01-20T02:06:47.090Z,100791.97
2023-01-20T02:09:15.660Z,100792.81
2023-01-20T02:11:48.669Z,100792.06
2023-01-20T02:14:19.022Z,100790.53
2023-01-20T02:16:59.183Z,100796.44
2023-01-20T02:20:05.506Z,100799.66
2023-01-20T02:22:44.262Z,100797.97
2023-01-20T02:25:34.993Z,100790.22
2023-01-20T02:28:40.152Z,100799.84
2023-01-20T02:31:52.987Z,100800.75
2023-01-20T02:34:48.890Z,100803.63
2023-01-20T02:37:20.692Z,100807.94
2023-01-20T02:39:51.741Z,100807.78
2023-01-20T02:42:25.550Z,100805.84
2023-01-20T02:45:00.671Z,100806.13
2023-01-20T02:47:36.738Z,100813.72
2023-01-20T02:50:13.540Z,100810.34
2023-01-20T02:52:45.425Z,100820.41
2023-01-20T02:55:18.654Z,100818.41
2023-01-20T02:57:51.653Z,100813.97
2023-01-20T03:00:25.606Z,100815.94
2023-01-20T03:02:59.063Z,100812.47
2023-01-20T03:05:31.888Z,100814.31
2023-01-20T03:08:03.699Z,100812.16
2023-01-20T03:10:35.086Z,100814.00
2023-01-20T03:13:10.938Z,100820.91
2023-01-20T03:15:48.819Z,100815.66
2023-01-20T03:18:18.703Z,100818.38
2023-01-20T03:20:47.215Z,100818.06
2023-01-20T03:23:15.724Z,100814.19
2023-01-20T03:25:47.120Z,100825.84
2023-01-20T03:28:15.839Z,100827.19
2023-01-20T03:30:44.473Z,100829.56
2023-01-20T03:33:14.881Z,100843.22
2023-01-20T03:35:45.324Z,100836.22
2023-01-20T03:38:14.217Z,100834.28
2023-01-20T03:40:49.667Z,100834.84
2023-01-20T03:43:28.315Z,100844.06
2023-01-20T03:46:02.760Z,100847.72
2023-01-20T03:48:40.075Z,100845.78
2023-01-20T03:51:15.094Z,100855.25
2023-01-20T03:53:51.023Z,100851.75
2023-01-20T03:56:24.250Z,100853.97
2023-01-20T03:58:55.062Z,100859.75
2023-01-20T04:01:28.808Z,100855.97
2023-01-20T04:03:58.630Z,100854.59
2023-01-20T04:06:31.240Z,100861.78
2023-01-20T04:09:03.751Z,100860.53
2023-01-20T04:11:32.270Z,100845.69
2023-01-20T04:14:00.972Z,100851.53
2023-01-20T04:16:29.543Z,100841.00
2023-01-20T04:18:58.041Z,100853.38
2023-01-20T04:21:32.449Z,100858.38
2023-01-20T04:24:05.730Z,100849.78
2023-01-20T04:26:34.236Z,100857.28
2023-01-20T04:29:10.445Z,100854.47
2023-01-20T04:31:40.669Z,100855.47
2023-01-20T04:34:12.308Z,100869.41
2023-01-20T04:36:42.233Z,100863.63
2023-01-20T04:39:11.122Z,100861.97
2023-01-20T04:41:39.598Z,100863.97
2023-01-20T04:44:08.134Z,100859.63
2023-01-20T04:46:37.198Z,100862.25
2023-01-20T04:49:05.785Z,100859.22
2023-01-20T04:51:34.879Z,100861.56
2023-01-20T04:54:05.126Z,100869.06
2023-01-20T04:56:33.798Z,100869.63
2023-01-20T04:59:02.342Z,100874.06
2023-01-20T05:01:30.907Z,100872.88
2023-01-20T05:03:59.462Z,100871.47
2023-01-20T05:06:28.129Z,100874.84
2023-01-20T05:08:56.668Z,100879.84
2023-01-20T05:11:26.526Z,100885.00
2023-01-20T05:13:54.992Z,100891.06
2023-01-20T05:16:26.030Z,100886.94
2023-01-20T05:18:55.041Z,100886.91
2023-01-20T05:21:23.617Z,100889.69
2023-01-20T05:23:54.302Z,100902.81
2023-01-20T05:26:23.479Z,100900.78
2023-01-20T05:28:53.806Z,100900.75
2023-01-20T05:31:22.520Z,100905.69
2023-01-20T05:33:51.121Z,100905.91
2023-01-20T05:36:19.626Z,100896.41
2023-01-20T05:38:48.146Z,100909.59
2023-01-20T05:41:16.705Z,100904.94
2023-01-20T05:43:45.191Z,100909.97
2023-01-20T05:46:15.679Z,100906.53
2023-01-20T05:48:44.199Z,100914.53
2023-01-20T05:51:12.733Z,100918.44
2023-01-20T05:53:41.204Z,100919.38
2023-01-20T05:56:12.169Z,100930.78
2023-01-20T05:58:40.647Z,100926.47
2023-01-20T06:01:10.902Z,100932.00
2023-01-20T06:03:41.333Z,100936.84
2023-01-20T06:06:15.595Z,100939.50
2023-01-20T06:08:44.480Z,100941.84
2023-01-20T06:11:14.885Z,100939.59
2023-01-20T06:13:43.448Z,100944.09
2023-01-20T06:16:12.029Z,100945.16
2023-01-20T06:18:42.163Z,100951.53
2023-01-20T06:21:10.842Z,100947.94
2023-01-20T06:23:39.395Z,100945.66
2023-01-20T06:26:10.196Z,100952.44
2023-01-20T06:28:39.375Z,100947.56
2023-01-20T06:31:10.470Z,100952.75
2023-01-20T06:33:39.071Z,100950.69
2023-01-20T06:36:11.002Z,100948.88
2023-01-20T06:38:39.504Z,100952.84
2023-01-20T06:41:10.849Z,100959.97
2023-01-20T06:43:42.017Z,100962.72
2023-01-20T06:46:13.986Z,100956.69
2023-01-20T06:48:43.217Z,100962.09
2023-01-20T06:51:15.552Z,100966.56
2023-01-20T06:53:44.636Z,100970.66
2023-01-20T06:56:14.896Z,100972.75
2023-01-20T06:58:44.883Z,100970.06
2023-01-20T07:01:16.174Z,100973.81
2023-01-20T07:03:45.621Z,100971.38
2023-01-20T07:06:21.145Z,100971.91
2023-01-20T07:08:49.678Z,100974.69
2023-01-20T07:11:18.549Z,100978.13
2023-01-20T07:13:47.101Z,100978.03
2023-01-20T07:16:16.176Z,100974.03
2023-01-20T07:18:48.104Z,100978.59
2023-01-20T07:21:18.501Z,100984.28
2023-01-20T07:23:47.541Z,100987.34
2023-01-20T07:26:18.413Z,100987.56
2023-01-20T07:28:47.118Z,100992.88
2023-01-20T07:31:18.798Z,100997.97
2023-01-20T07:33:47.492Z,100999.41
2023-01-20T07:36:18.563Z,101007.75
2023-01-20T07:38:49.639Z,100999.13
2023-01-20T07:41:20.307Z,101005.78
2023-01-20T07:43:50.865Z,101013.25
2023-01-20T07:46:20.100Z,101014.28
2023-01-20T07:48:49.090Z,101029.06
2023-01-20T07:51:19.189Z,101017.88
2023-01-20T07:53:49.330Z,101032.66
2023-01-20T07:56:19.577Z,101032.34
2023-01-20T07:58:50.510Z,101027.38
2023-01-20T08:01:20.885Z,101035.09
2023-01-20T08:03:49.887Z,101027.84
2023-01-20T08:06:22.006Z,101030.34
2023-01-20T08:08:50.924Z,101027.81
2023-01-20T08:11:21.437Z,101037.78
2023-01-20T08:13:50.157Z,101036.47
2023-01-20T08:16:19.950Z,101050.81
2023-01-20T08:18:48.964Z,101049.84
2023-01-20T08:21:21.252Z,101062.84
2023-01-20T08:23:50.347Z,101058.56
2023-01-20T08:26:19.848Z,101064.81
2023-01-20T08:28:48.419Z,101069.72
2023-01-20T08:31:19.904Z,101079.91
2023-01-20T08:33:49.431Z,101072.78
2023-01-20T08:36:22.411Z,101074.84
2023-01-20T08:38:51.253Z,101076.84
2023-01-20T08:41:22.095Z,101073.00
2023-01-20T08:43:51.295Z,101072.28
2023-01-20T08:46:21.530Z,101079.81
2023-01-20T08:48:51.071Z,101083.25
2023-01-20T08:51:23.535Z,101085.78
2023-01-20T08:53:52.672Z,101093.38
2023-01-20T08:56:21.463Z,101091.81
2023-01-20T08:58:50.504Z,101095.84
2023-01-20T09:01:20.815Z,101099.44
2023-01-20T09:04:04.255Z,101101.47
2023-01-20T09:06:40.168Z,101091.63
2023-01-20T09:09:08.718Z,101102.28
2023-01-20T09:11:37.361Z,101110.59
2023-01-20T09:14:06.108Z,101108.81
2023-01-20T09:16:34.692Z,101110.34
2023-01-20T09:19:04.167Z,101101.47
2023-01-20T09:21:34.047Z,101114.16
2023-01-20T09:24:02.571Z,101107.94
2023-01-20T09:26:38.394Z,101104.31
2023-01-20T09:29:11.789Z,101101.03
2023-01-20T09:31:44.475Z,101099.41
2023-01-20T09:34:18.998Z,101109.03
2023-01-20T09:36:52.266Z,101105.84
2023-01-20T09:39:38.748Z,101105.66
2023-01-20T09:42:40.122Z,101096.19
2023-01-20T09:45:25.145Z,101100.66
2023-01-20T09:48:00.902Z,101104.84
2023-01-20T09:51:00.682Z,101094.00
2023-01-20T09:53:51.705Z,101101.84
2023-01-20T09:56:25.133Z,101108.31
2023-01-20T09:59:01.108Z,101109.78
2023-01-20T10:01:37.655Z,101111.16
2023-01-20T10:04:12.726Z,101108.69
2023-01-20T10:06:43.905Z,101107.72
2023-01-20T10:09:22.642Z,101113.06
2023-01-20T10:11:56.369Z,101117.88
2023-01-20T10:14:31.162Z,101109.31
2023-01-20T10:17:05.465Z,101114.78
2023-01-20T10:19:42.408Z,101118.06
2023-01-20T10:22:18.217Z,101110.16
2023-01-20T10:24:56.136Z,101111.13
2023-01-20T10:27:27.889Z,101110.31
2023-01-20T10:30:00.194Z,101111.06
2023-01-20T10:32:36.507Z,101116.94
2023-01-20T10:35:15.321Z,101110.25
2023-01-20T10:37:44.347Z,101101.31
2023-01-20T10:40:26.459Z,101107.84
2023-01-20T10:42:58.560Z,101102.66
2023-01-20T10:45:36.546Z,101108.69
2023-01-20T10:48:19.770Z,101100.38
2023-01-20T10:50:56.983Z,101102.81
2023-01-20T10:53:44.193Z,101101.28
2023-01-20T10:56:36.061Z,101101.13
2023-01-20T10:59:09.460Z,101102.13
2023-01-20T11:01:38.409Z,101101.31
2023-01-20T11:04:07.144Z,101105.13
2023-01-20T11:06:35.724Z,101099.16
2023-01-20T11:09:21.350Z,101106.38
2023-01-20T11:11:51.506Z,101103.28
2023-01-20T11:14:20.280Z,101106.97
2023-01-20T11:16:54.562Z,101106.78
2023-01-20T11:19:23.068Z,101111.44
2023-01-20T11:21:51.707Z,101102.25
2023-01-20T11:24:43.876Z,101103.81
2023-01-20T11:27:17.973Z,101103.19
2023-01-20T11:29:50.675Z,101103.44
2023-01-20T11:32:34.580Z,101097.53
2023-01-20T11:35:19.285Z,101097.06
2023-01-20T11:37:47.936Z,101100.84
2023-01-20T11:40:22.685Z,101098.69
2023-01-20T11:42:53.902Z,101104.41
2023-01-20T11:45:34.690Z,101100.13
2023-01-20T11:48:07.469Z,101099.66
2023-01-20T11:50:40.553Z,101102.16
2023-01-20T11:53:21.167Z,101093.78
2023-01-20T11:55:55.350Z,101092.94
2023-01-20T11:58:27.354Z,101093.66
2023-01-20T12:01:03.467Z,101099.34
2023-01-20T12:04:04.959Z,101093.28
2023-01-20T12:06:38.208Z,101103.13
2023-01-20T12:09:11.743Z,101097.41
2023-01-20T12:11:46.644Z,101089.56
2023-01-20T12:14:24.940Z,101090.06
2023-01-20T12:17:04.580Z,101088.03
2023-01-20T12:19:41.895Z,101090.31
2023-01-20T12:22:19.143Z,101092.16
2023-01-20T12:25:10.261Z,101095.56
2023-01-20T12:27:46.028Z,101105.06
2023-01-20T12:30:51.875Z,101104.41
2023-01-20T12:33:24.427Z,101099.06
2023-01-20T12:36:21.316Z,101108.53
2023-01-20T12:39:13.397Z,101107.09
2023-01-20T12:42:05.951Z,101105.75
2023-01-20T12:44:40.959Z,101102.28
2023-01-20T12:47:22.056Z,101112.19
2023-01-20T12:50:06.768Z,101104.91
2023-01-20T12:52:52.621Z,101101.81
2023-01-20T12:55:30.817Z,101102.88
2023-01-20T12:58:17.751Z,101102.16
2023-01-20T13:01:07.371Z,101110.75
2023-01-20T13:04:01.626Z,101112.94
2023-01-20T13:06:55.270Z,101116.19
2023-01-20T13:09:37.685Z,101111.06
2023-01-20T13:12:22.528Z,101110.47
2023-01-20T13:14:57.192Z,101106.41
2023-01-20T13:17:32.791Z,101102.75
2023-01-20T13:20:05.775Z,101105.72
2023-01-20T13:22:34.920Z,101107.28
2023-01-20T13:25:04.974Z,101109.84
2023-01-20T13:27:37.179Z,101113.22
2023-01-20T13:30:08.413Z,101112.63
2023-01-20T13:32:38.786Z,101113.88
2023-01-20T13:35:47.149Z,101121.75
2023-01-20T13:38:27.923Z,101113.72
2023-01-20T13:40:58.726Z,101124.75
2023-01-20T13:44:00.269Z,101122.50
2023-01-20T13:46:48.872Z,101123.72
2023-01-20T13:49:32.619Z,101121.72
2023-01-20T13:52:02.483Z,101133.16
2023-01-20T13:54:47.627Z,101137.22
2023-01-20T13:57:46.379Z,101138.78
2023-01-20T14:00:24.574Z,101139.59
2023-01-20T14:02:53.709Z,101143.03
2023-01-20T14:05:37.183Z,101142.66
2023-01-20T14:08:15.506Z,101147.16
2023-01-20T14:10:44.510Z,101146.59
2023-01-20T14:13:14.027Z,101147.97
2023-01-20T14:15:42.678Z,101156.22
2023-01-20T14:18:16.513Z,101147.00
2023-01-20T14:20:57.061Z,101152.09
2023-01-20T14:23:33.053Z,101153.66
2023-01-20T14:26:07.297Z,101157.53
2023-01-20T14:28:41.103Z,101166.84
2023-01-20T14:31:19.043Z,101170.84
2023-01-20T14:33:49.761Z,101169.50
2023-01-20T14:36:20.440Z,101166.31
2023-01-20T14:38:58.362Z,101182.09
2023-01-20T14:41:30.372Z,101178.94
2023-01-20T14:43:59.704Z,101186.53
2023-01-20T14:46:29.758Z,101192.81
2023-01-20T14:48:59.156Z,101197.56
2023-01-20T14:51:28.001Z,101201.84
2023-01-20T14:54:35.977Z,101209.22
2023-01-20T14:57:28.821Z,101220.03
2023-01-20T15:00:17.438Z,101223.38
2023-01-20T15:03:01.407Z,101218.56
2023-01-20T15:05:40.304Z,101229.88
2023-01-20T15:08:26.095Z,101231.03
2023-01-20T15:11:31.442Z,101242.06
2023-01-20T15:14:13.599Z,101239.03
2023-01-20T15:16:47.471Z,101236.75
2023-01-20T15:19:35.581Z,101244.72
2023-01-20T15:22:20.875Z,101253.09
2023-01-20T15:24:50.611Z,101263.84
2023-01-20T15:27:31.382Z,101251.50
2023-01-20T15:30:29.841Z,101260.94
2023-01-20T15:32:58.416Z,101278.78
2023-01-20T15:35:27.020Z,101279.53
2023-01-20T15:37:56.265Z,101278.84
2023-01-20T15:40:26.865Z,101282.06
2023-01-20T15:42:57.526Z,101286.94
2023-01-20T15:45:26.822Z,101293.38
2023-01-20T15:47:55.343Z,101302.41
2023-01-20T15:50:26.663Z,101306.50
2023-01-20T15:52:55.207Z,101305.34
2023-01-20T15:55:23.833Z,101314.75
2023-01-20T15:57:55.182Z,101319.34
2023-01-20T16:00:25.203Z,101322.03
2023-01-20T16:02:53.797Z,101323.69
2023-01-20T16:05:22.507Z,101329.22
2023-01-20T16:07:51.032Z,101334.63
2023-01-20T16:10:20.619Z,101344.59
2023-01-20T16:12:49.592Z,101342.56
2023-01-20T16:15:19.989Z,101347.50
2023-01-20T16:17:50.955Z,101356.38
2023-01-20T16:20:24.623Z,101352.78
2023-01-20T16:22:53.248Z,101358.50
2023-01-20T16:25:22.309Z,101363.69
2023-01-20T16:27:50.934Z,101363.53
2023-01-20T16:30:22.451Z,101370.28
2023-01-20T16:32:51.501Z,101369.91
2023-01-20T16:35:23.550Z,101376.69
2023-01-20T16:37:52.821Z,101377.91
2023-01-20T16:40:22.409Z,101377.56
2023-01-20T16:42:50.940Z,101380.22
2023-01-20T16:45:29.310Z,101376.63
2023-01-20T16:47:58.214Z,101391.88
2023-01-20T16:50:28.339Z,101402.03
2023-01-20T16:52:56.975Z,101397.59
2023-01-20T16:55:26.055Z,101396.56
2023-01-20T16:57:54.583Z,101407.94
2023-01-20T17:00:24.790Z,101412.28
2023-01-20T17:02:53.931Z,101419.50
2023-01-20T17:05:25.616Z,101419.69
2023-01-20T17:07:56.890Z,101429.22
2023-01-20T17:10:27.068Z,101439.94
2023-01-20T17:12:56.672Z,101441.91
2023-01-20T17:15:27.174Z,101437.78
2023-01-20T17:17:58.387Z,101445.59
2023-01-20T17:20:28.124Z,101453.44
2023-01-20T17:22:56.764Z,101454.78
2023-01-20T17:25:25.964Z,101455.50
2023-01-20T17:27:54.607Z,101458.22
2023-01-20T17:30:26.127Z,101473.63
2023-01-20T17:32:56.247Z,101475.50
2023-01-20T17:35:24.778Z,101475.69
2023-01-20T17:37:53.261Z,101491.50
2023-01-20T17:40:21.843Z,101490.28
2023-01-20T17:42:53.187Z,101487.53
2023-01-20T17:45:21.730Z,101487.72
2023-01-20T17:47:52.081Z,101493.50
2023-01-20T17:50:22.240Z,101499.97
2023-01-20T17:52:51.668Z,101511.47
2023-01-20T17:55:20.164Z,101512.47
2023-01-20T17:57:50.521Z,101525.06
2023-01-20T18:00:20.049Z,101528.44
2023-01-20T18:02:48.514Z,101525.72
2023-01-20T18:05:17.134Z,101532.06
2023-01-20T18:07:46.994Z,101526.47
2023-01-20T18:10:15.664Z,101537.53
2023-01-20T18:12:44.313Z,101542.50
2023-01-20T18:15:12.984Z,101548.00
2023-01-20T18:17:43.429Z,101553.81
2023-01-20T18:20:15.107Z,101562.25
2023-01-20T18:22:50.547Z,101563.94
2023-01-20T18:25:19.486Z,101562.91
2023-01-20T18:27:48.444Z,101570.81
2023-01-20T18:30:17.865Z,101576.44
2023-01-20T18:32:46.834Z,101565.44
2023-01-20T18:35:15.437Z,101575.31
2023-01-20T18:37:43.918Z,101580.09
2023-01-20T18:40:14.947Z,101588.44
2023-01-20T18:42:45.038Z,101584.44
2023-01-20T18:45:13.665Z,101577.25
2023-01-20T18:47:42.322Z,101587.00
2023-01-20T18:50:12.009Z,101586.34
2023-01-20T18:52:40.487Z,101599.94
2023-01-20T18:55:10.179Z,101599.22
2023-01-20T18:57:40.032Z,101604.66
2023-01-20T19:00:09.779Z,101610.63
2023-01-20T19:02:38.294Z,101610.91
2023-01-20T19:05:07.645Z,101611.13
2023-01-20T19:07:36.156Z,101617.63
2023-01-20T19:10:04.956Z,101623.75
2023-01-20T19:12:33.470Z,101628.88
2023-01-20T19:15:03.347Z,101626.47
2023-01-20T19:17:33.033Z,101640.50
2023-01-20T19:20:02.017Z,101639.59
2023-01-20T19:22:31.319Z,101651.13
2023-01-20T19:25:00.408Z,101648.97
2023-01-20T19:27:28.991Z,101654.06
2023-01-20T19:29:57.528Z,101664.16
2023-01-20T19:32:27.393Z,101665.78
2023-01-20T19:34:55.858Z,101672.53
2023-01-20T19:37:24.465Z,101669.28
2023-01-20T19:39:52.963Z,101672.53
2023-01-20T19:42:21.490Z,101679.03
2023-01-20T19:44:49.966Z,101680.41
2023-01-20T19:47:18.477Z,101693.91
2023-01-20T19:49:48.324Z,101688.03
2023-01-20T19:52:16.874Z,101690.81
2023-01-20T19:54:45.334Z,101699.72
2023-01-20T19:57:13.842Z,101701.56
2023-01-20T19:59:42.296Z,101709.94
2023-01-20T20:02:11.273Z,101713.06
2023-01-20T20:04:39.782Z,101718.84
2023-01-20T20:07:09.841Z,101710.09
2023-01-20T20:09:38.710Z,101725.53
2023-01-20T20:12:07.860Z,101727.06
2023-01-20T20:14:36.605Z,101725.00
2023-01-20T20:17:05.149Z,101728.09
2023-01-20T20:19:34.052Z,101731.66
2023-01-20T20:22:02.549Z,101736.69
2023-01-20T20:24:32.403Z,101737.69
2023-01-20T20:27:00.927Z,101752.72
2023-01-20T20:29:29.445Z,101754.75
2023-01-20T20:31:58.057Z,101759.72
2023-01-20T20:34:26.681Z,101760.59
2023-01-20T20:36:55.476Z,101774.13
2023-01-20T20:39:23.944Z,101773.94
2023-01-20T20:41:55.408Z,101783.00
2023-01-20T20:44:23.874Z,101783.88
2023-01-20T20:46:52.412Z,101786.78
2023-01-20T20:49:21.276Z,101783.88
2023-01-20T20:51:49.810Z,101792.91
2023-01-20T20:54:19.204Z,101790.00
2023-01-20T20:56:47.786Z,101794.09
2023-01-20T20:59:19.486Z,101806.09
2023-01-20T21:01:48.021Z,101803.03
2023-01-20T21:04:16.546Z,101806.94
2023-01-20T21:06:45.081Z,101812.78
2023-01-20T21:09:13.552Z,101813.41
2023-01-20T21:11:43.188Z,101820.81
2023-01-20T21:14:12.121Z,101820.13
2023-01-20T21:16:42.073Z,101823.88
2023-01-20T21:19:10.572Z,101829.72
2023-01-20T21:21:39.120Z,101837.56
2023-01-20T21:24:13.889Z,101842.00
2023-01-20T21:26:43.119Z,101847.13
2023-01-20T21:29:12.569Z,101849.19
2023-01-20T21:31:42.464Z,101864.06
2023-01-20T21:34:15.410Z,101872.44
2023-01-20T21:36:43.953Z,101872.59
2023-01-20T21:39:14.216Z,101874.63
2023-01-20T21:41:42.991Z,101882.03
2023-01-20T21:44:32.414Z,101875.66
2023-01-20T21:47:04.138Z,101886.97
2023-01-20T21:49:50.376Z,101886.47
2023-01-20T21:52:39.224Z,101881.31
2023-01-20T21:55:09.058Z,101884.75
2023-01-20T21:57:38.694Z,101896.19
2023-01-20T22:00:09.355Z,101901.16
2023-01-20T22:02:39.698Z,101904.38
2023-01-20T22:05:08.946Z,101915.50
2023-01-20T22:07:37.467Z,101920.44
2023-01-20T22:10:07.672Z,101913.44
2023-01-20T22:12:36.178Z,101921.97
2023-01-20T22:15:05.601Z,101918.88
2023-01-20T22:17:34.201Z,101923.69
2023-01-20T22:20:04.433Z,101938.53
2023-01-20T22:22:32.925Z,101922.44
2023-01-20T22:25:01.431Z,101936.13
2023-01-20T22:27:29.933Z,101937.16
2023-01-20T22:29:58.386Z,101938.72
2023-01-20T22:32:26.898Z,101940.72
2023-01-20T22:34:55.392Z,101943.47
2023-01-20T22:37:25.773Z,101950.75
2023-01-20T22:39:54.284Z,101950.94
2023-01-20T22:42:22.794Z,101952.72
2023-01-20T22:44:51.316Z,101958.00
2023-01-20T22:47:19.836Z,101954.59
2023-01-20T22:49:48.349Z,101961.59
2023-01-20T22:52:16.832Z,101962.63
2023-01-20T22:54:46.694Z,101971.53
2023-01-20T22:57:15.190Z,101976.00
2023-01-20T22:59:43.718Z,101980.59
2023-01-20T23:02:12.215Z,101980.13
2023-01-20T23:04:40.782Z,101992.94
2023-01-20T23:07:09.262Z,101993.28
2023-01-20T23:09:37.808Z,101991.25
2023-01-20T23:12:08.007Z,101997.22
2023-01-20T23:14:53.373Z,101996.25
2023-01-20T23:17:21.880Z,101998.41
2023-01-20T23:19:50.548Z,101997.03
2023-01-20T23:22:20.047Z,102007.63
2023-01-20T23:24:48.651Z,102004.13
2023-01-20T23:27:18.787Z,102011.66
2023-01-20T23:29:49.214Z,102017.78
2023-01-20T23:32:17.683Z,102026.53
2023-01-20T23:34:46.219Z,102034.78
2023-01-20T23:37:14.704Z,102038.34
2023-01-20T23:39:43.228Z,102044.84
2023-01-20T23:42:11.760Z,102058.03
2023-01-20T23:44:41.658Z,102049.28
2023-01-20T23:47:10.599Z,102062.31
2023-01-20T23:49:39.171Z,102056.84
2023-01-20T23:52:08.165Z,102060.94
2023-01-20T23:54:36.844Z,102071.78
2023-01-20T23:57:05.428Z,102076.28
2023-01-20T23:59:33.945Z,102073.44
